Time;durP1;ratioP1;P1;durP2;ratioP2;P2;SDS_P1;SDS_P2;PMS_P1;PMS_P2;Temp;Humidity;BMP_temperature;BMP_pressure;BME280_temperature;BME280_humidity;BME280_pressure;Samples;Min_cycle;Max_cycle;Signal;HPM_P1;HPM_P2
2021/05/26 00:01:08;;;;;;;10.88;8.68;;;;;;;17.57;67.99;94050.66;5113474;28;20376;-74
2021/05/26 00:03:37;;;;;;;14.18;8.75;;;;;;;17.52;68.20;94051.69;5111942;28;20031;-74
2021/05/26 00:06:03;;;;;;;24.77;8.73;;;;;;;17.51;68.12;94043.97;5108023;28;20038;-74
2021/05/26 00:08:33;;;;;;;18.77;9.07;;;;;;;17.48;68.12;94041.97;5111979;28;20475;-73
2021/05/26 00:11:01;;;;;;;16.75;9.07;;;;;;;17.51;68.26;94041.28;5109914;28;20398;-74
2021/05/26 00:13:26;;;;;;;15.93;8.77;;;;;;;17.49;68.08;94035.47;5105728;28;20058;-74
2021/05/26 00:15:53;;;;;;;17.27;9.25;;;;;;;17.51;68.30;94038.59;5111146;28;20051;-74
2021/05/26 00:18:20;;;;;;;20.58;9.23;;;;;;;17.52;67.89;94032.81;5103096;28;20368;-74
2021/05/26 00:20:47;;;;;;;11.95;9.25;;;;;;;17.52;68.32;94045.53;5111676;28;20028;-74
2021/05/26 00:23:12;;;;;;;14.85;9.93;;;;;;;17.50;68.50;94047.78;5128714;27;20039;-74
2021/05/26 00:25:38;;;;;;;14.90;9.20;;;;;;;17.48;68.42;94052.75;5097458;28;20099;-73
2021/05/26 00:28:03;;;;;;;15.95;10.02;;;;;;;17.48;68.56;94047.38;5108780;28;20023;-73
2021/05/26 00:30:32;;;;;;;13.88;9.30;;;;;;;17.42;68.77;94042.28;5108948;28;20023;-75
2021/05/26 00:32:57;;;;;;;14.57;8.52;;;;;;;17.42;68.51;94058.44;5104762;28;20057;-74
2021/05/26 00:35:24;;;;;;;16.55;11.23;;;;;;;17.24;69.41;94058.03;5112536;28;20053;-74
2021/05/26 00:37:50;;;;;;;14.73;10.40;;;;;;;17.18;69.83;94055.97;5111397;28;20454;-74
2021/05/26 00:40:17;;;;;;;14.00;10.25;;;;;;;17.17;69.72;94051.69;5111336;28;20175;-74
2021/05/26 00:42:42;;;;;;;13.80;9.85;;;;;;;17.17;69.46;94052.47;5109883;28;20024;-74
2021/05/26 00:45:08;;;;;;;14.73;10.07;;;;;;;17.17;69.47;94043.59;5093963;28;20028;-74
2021/05/26 00:47:38;;;;;;;18.73;9.82;;;;;;;17.16;69.61;94050.13;5092218;28;20596;-75
2021/05/26 00:50:05;;;;;;;16.40;11.10;;;;;;;17.18;69.42;94056.72;5097339;28;20107;-74
2021/05/26 00:52:30;;;;;;;14.48;10.73;;;;;;;17.20;69.38;94053.69;5099452;28;20118;-74
2021/05/26 00:54:56;;;;;;;17.80;11.13;;;;;;;17.20;69.49;94057.16;5102901;28;20016;-74
2021/05/26 00:57:21;;;;;;;21.58;10.85;;;;;;;17.15;69.60;94057.41;5105275;28;20113;-75
2021/05/26 00:59:47;;;;;;;17.48;12.38;;;;;;;17.10;69.90;94048.84;5108756;28;20019;-75
2021/05/26 01:02:13;;;;;;;16.42;12.63;;;;;;;17.12;70.21;94062.75;5090628;28;20054;-74
2021/05/26 01:04:38;;;;;;;20.13;12.82;;;;;;;17.11;69.82;94058.47;5110918;28;20027;-74
2021/05/26 01:07:04;;;;;;;17.45;11.82;;;;;;;17.01;69.87;94049.00;5110782;28;20023;-74
2021/05/26 01:09:29;;;;;;;19.02;11.50;;;;;;;16.97;70.17;94058.91;5094624;28;20177;-74
2021/05/26 01:11:54;;;;;;;14.07;11.60;;;;;;;16.90;70.59;94059.53;5100439;28;20052;-74
2021/05/26 01:14:20;;;;;;;13.43;11.30;;;;;;;16.84;70.70;94072.47;5096609;28;20425;-74
2021/05/26 01:16:45;;;;;;;17.83;12.57;;;;;;;16.80;70.98;94071.56;5095162;28;20028;-74
2021/05/26 01:19:15;;;;;;;16.70;12.30;;;;;;;16.78;71.04;94067.66;5110723;28;20073;-75
2021/05/26 01:21:41;;;;;;;22.27;12.55;;;;;;;16.73;71.31;94081.34;5097787;27;20040;-74
2021/05/26 01:24:07;;;;;;;18.50;11.73;;;;;;;16.72;71.38;94080.59;5107839;28;20046;-74
2021/05/26 01:26:32;;;;;;;17.90;12.18;;;;;;;16.73;71.60;94071.41;5097773;28;20027;-74
2021/05/26 01:28:58;;;;;;;19.52;11.63;;;;;;;16.77;71.11;94068.78;5108443;28;20016;-74
2021/05/26 01:31:23;;;;;;;17.02;11.45;;;;;;;16.74;71.38;94067.56;5097146;28;20479;-74
2021/05/26 01:33:49;;;;;;;13.68;11.57;;;;;;;16.72;71.57;94072.50;5088467;28;20103;-74
2021/05/26 01:36:14;;;;;;;16.02;12.10;;;;;;;16.72;71.49;94069.03;5091169;28;20089;-74
2021/05/26 01:38:40;;;;;;;18.63;11.48;;;;;;;16.74;71.47;94072.19;5091246;28;20080;-74
2021/05/26 01:41:05;;;;;;;19.92;11.63;;;;;;;16.75;71.57;94071.03;5098364;28;20059;-74
2021/05/26 01:43:32;;;;;;;17.05;12.32;;;;;;;16.78;71.30;94073.03;5095390;28;20111;-74
2021/05/26 01:45:59;;;;;;;17.92;13.02;;;;;;;16.79;71.38;94077.28;5093699;28;20055;-74
2021/05/26 01:48:25;;;;;;;18.35;11.55;;;;;;;16.82;71.33;94071.25;5096523;28;20601;-74
2021/05/26 01:50:50;;;;;;;15.57;11.13;;;;;;;16.81;71.05;94067.78;5090720;28;20032;-74
2021/05/26 01:53:16;;;;;;;18.42;10.88;;;;;;;16.81;71.06;94066.97;5089603;28;20028;-74
2021/05/26 01:55:41;;;;;;;17.00;11.60;;;;;;;16.80;71.04;94060.03;5092439;28;20039;-74
2021/05/26 01:58:07;;;;;;;17.98;11.75;;;;;;;16.82;70.87;94071.25;5109091;28;20055;-74
2021/05/26 02:00:34;;;;;;;16.20;12.27;;;;;;;16.79;70.83;94063.81;5092503;28;20016;-74
2021/05/26 02:02:59;;;;;;;17.58;11.13;;;;;;;16.78;71.14;94060.34;5089357;28;20039;-74
2021/05/26 02:05:25;;;;;;;23.45;13.38;;;;;;;16.62;72.06;94060.34;5090615;28;20028;-74
2021/05/26 02:07:52;;;;;;;19.92;13.20;;;;;;;16.60;72.40;94057.22;5106255;28;20028;-74
2021/05/26 02:12:19;;;;;;;14.40;12.68;;;;;;;16.57;72.44;94057.94;5092201;28;20034;-74
2021/05/26 02:13:04;;;;;;;19.45;12.80;;;;;;;16.55;72.42;94065.56;5090695;28;20494;-73
2021/05/26 02:15:29;;;;;;;18.83;13.13;;;;;;;16.54;72.52;94066.66;5106363;28;20027;-73
2021/05/26 02:17:55;;;;;;;23.98;14.65;;;;;;;16.56;72.64;94055.56;5095320;28;20024;-74
2021/05/26 02:20:20;;;;;;;18.55;13.07;;;;;;;16.62;72.23;94054.19;5099662;28;20040;-73
2021/05/26 02:22:46;;;;;;;17.83;13.90;;;;;;;16.65;72.07;94053.50;5100501;28;20043;-73
2021/05/26 02:25:12;;;;;;;17.58;13.70;;;;;;;16.68;72.24;94054.72;5098864;28;20490;-73
2021/05/26 02:27:37;;;;;;;19.75;14.07;;;;;;;16.70;71.99;94055.94;5094077;28;20095;-73
2021/05/26 02:30:04;;;;;;;20.98;14.48;;;;;;;16.71;71.93;94067.47;5100815;28;20024;-73
2021/05/26 02:32:30;;;;;;;17.40;14.05;;;;;;;16.67;72.21;94066.59;5088886;28;20102;-73
2021/05/26 02:34:55;;;;;;;22.67;14.88;;;;;;;16.68;72.29;94063.56;5097383;28;20106;-73
2021/05/26 02:37:20;;;;;;;18.02;13.38;;;;;;;16.67;72.12;94063.91;5110446;28;20096;-74
2021/05/26 02:39:46;;;;;;;17.65;13.50;;;;;;;16.67;72.24;94072.78;5108852;28;20031;-73
2021/05/26 02:42:11;;;;;;;21.40;13.13;;;;;;;16.65;71.91;94081.19;5100379;28;20547;-73
2021/05/26 02:44:37;;;;;;;20.00;14.43;;;;;;;16.65;71.81;94073.13;5102721;28;20058;-74
2021/05/26 02:47:03;;;;;;;16.10;12.68;;;;;;;16.67;71.88;94080.06;5097791;28;20043;-74
2021/05/26 02:49:29;;;;;;;24.80;13.43;;;;;;;16.62;71.81;94073.03;5090693;28;20499;-73
2021/05/26 02:51:55;;;;;;;19.65;12.95;;;;;;;16.59;71.72;94084.50;5108965;28;20051;-73
2021/05/26 02:54:20;;;;;;;23.08;15.00;;;;;;;16.54;72.50;94073.97;5093663;28;20396;-73
2021/05/26 02:56:46;;;;;;;20.77;14.32;;;;;;;16.55;72.84;94070.16;5094642;28;20023;-73
2021/05/26 02:59:11;;;;;;;19.33;14.30;;;;;;;16.55;72.75;94081.72;5091001;28;20020;-73
2021/05/26 03:01:37;;;;;;;17.55;14.52;;;;;;;16.55;72.33;94089.78;5102997;28;20027;-74
2021/05/26 03:04:03;;;;;;;23.35;14.25;;;;;;;16.53;72.17;94097.41;5095399;28;20403;-74
2021/05/26 03:06:29;;;;;;;19.00;13.55;;;;;;;16.43;72.25;94104.06;5088643;28;20126;-74
2021/05/26 03:08:54;;;;;;;18.73;14.10;;;;;;;16.30;72.47;94113.31;5110112;28;20146;-74
2021/05/26 03:11:20;;;;;;;22.75;14.23;;;;;;;16.23;72.72;94113.91;5108618;28;20084;-74
2021/05/26 03:13:45;;;;;;;19.00;13.00;;;;;;;16.11;72.74;94118.53;5090988;28;20028;-73
2021/05/26 03:16:11;;;;;;;23.38;15.35;;;;;;;16.06;73.47;94114.19;5088400;28;20035;-74
2021/05/26 03:18:37;;;;;;;20.17;15.30;;;;;;;16.05;73.95;94112.63;5089726;28;20027;-73
2021/05/26 03:21:03;;;;;;;23.35;14.35;;;;;;;15.99;74.49;94127.44;5089596;28;20050;-73
2021/05/26 03:23:28;;;;;;;18.20;15.15;;;;;;;16.01;74.79;94127.88;5101668;28;20028;-73
2021/05/26 03:25:54;;;;;;;17.67;15.15;;;;;;;15.99;75.04;94135.50;5096011;28;20031;-73
2021/05/26 03:28:19;;;;;;;16.95;13.88;;;;;;;15.97;74.98;94129.66;5096597;28;20195;-74
2021/05/26 03:30:46;;;;;;;21.63;14.30;;;;;;;15.89;75.53;94135.97;5102384;28;20513;-73
2021/05/26 03:33:13;;;;;;;27.50;17.42;;;;;;;15.82;76.40;94131.94;5086484;28;20081;-73
2021/05/26 03:35:40;;;;;;;27.83;16.33;;;;;;;15.87;76.42;94138.22;5108376;28;20055;-73
2021/05/26 03:38:06;;;;;;;22.08;15.27;;;;;;;15.91;76.42;94133.72;5109848;28;20012;-73
2021/05/26 03:40:33;;;;;;;19.00;14.63;;;;;;;15.93;76.50;94136.84;5101445;28;20024;-73
2021/05/26 03:42:58;;;;;;;23.88;14.50;;;;;;;15.92;76.63;94146.81;5098944;28;20103;-73
2021/05/26 03:45:24;;;;;;;23.60;15.13;;;;;;;15.91;76.67;94147.16;5088540;28;20137;-74
2021/05/26 03:47:49;;;;;;;27.35;15.55;;;;;;;15.97;76.70;94160.00;5095747;28;20040;-73
2021/05/26 03:50:15;;;;;;;19.00;14.55;;;;;;;16.02;76.52;94154.41;5108305;28;20027;-73
2021/05/26 03:52:46;;;;;;;22.92;16.52;;;;;;;16.06;76.68;94146.47;5091397;28;20410;-74
2021/05/26 03:55:15;;;;;;;25.63;17.77;;;;;;;16.05;76.49;94171.75;5097254;28;20023;-74
2021/05/26 03:57:41;;;;;;;24.63;17.77;;;;;;;16.03;76.62;94168.63;5094203;28;20330;-73
2021/05/26 04:00:09;;;;;;;27.48;18.48;;;;;;;15.98;76.89;94164.28;5100257;28;20028;-74
2021/05/26 04:02:35;;;;;;;28.92;18.33;;;;;;;15.95;77.31;94172.25;5102128;28;20043;-73
2021/05/26 04:05:00;;;;;;;22.25;18.88;;;;;;;15.88;77.69;94174.72;5109287;28;20019;-74
2021/05/26 04:07:26;;;;;;;26.33;19.13;;;;;;;15.82;77.55;94174.94;5099615;28;20502;-74
2021/05/26 04:09:51;;;;;;;26.20;18.90;;;;;;;15.87;77.54;94175.84;5098547;28;20027;-73
2021/05/26 04:12:17;;;;;;;23.63;16.77;;;;;;;15.96;77.40;94181.88;5112012;28;20028;-74
2021/05/26 04:14:43;;;;;;;31.42;19.02;;;;;;;15.94;77.66;94176.06;5103227;28;20076;-74
2021/05/26 04:17:08;;;;;;;24.52;20.25;;;;;;;15.81;78.00;94184.16;5109548;28;20024;-74
2021/05/26 04:19:33;;;;;;;24.77;18.70;;;;;;;15.82;78.30;94187.59;5091551;28;20100;-74
2021/05/26 04:21:59;;;;;;;26.65;20.05;;;;;;;15.76;78.21;94176.31;5108206;28;20500;-74
2021/05/26 04:24:24;;;;;;;23.17;19.27;;;;;;;15.74;78.25;94188.50;5105510;28;20114;-74
2021/05/26 04:26:50;;;;;;;29.42;20.05;;;;;;;15.71;78.57;94183.78;5095444;28;20034;-74
2021/05/26 04:29:15;;;;;;;31.05;20.63;;;;;;;15.59;78.89;94192.59;5091092;28;20151;-74
2021/05/26 04:31:41;;;;;;;26.27;19.73;;;;;;;15.59;78.94;94193.41;5107183;28;20100;-74
2021/05/26 04:34:06;;;;;;;23.63;18.45;;;;;;;15.60;78.43;94194.97;5111309;28;20555;-74
2021/05/26 04:36:32;;;;;;;34.00;18.00;;;;;;;15.51;78.82;94188.94;5107220;28;20023;-73
2021/05/26 04:38:57;;;;;;;24.92;16.83;;;;;;;15.55;78.55;94186.34;5111242;28;20080;-73
2021/05/26 04:41:23;;;;;;;20.02;15.20;;;;;;;15.52;78.44;94195.09;5092825;28;20060;-73
2021/05/26 04:43:48;;;;;;;25.58;15.50;;;;;;;15.52;78.58;94195.09;5107442;28;20031;-74
2021/05/26 04:46:13;;;;;;;19.95;13.50;;;;;;;15.48;76.82;94199.56;5092646;27;20063;-74
2021/05/26 04:48:39;;;;;;;18.85;11.85;;;;;;;15.32;75.95;94205.59;5092523;28;20048;-74
2021/05/26 04:51:04;;;;;;;15.25;10.55;;;;;;;15.21;75.76;94207.16;5111265;28;20027;-73
2021/05/26 04:53:30;;;;;;;20.67;12.00;;;;;;;15.19;75.29;94220.91;5103941;28;20028;-73
2021/05/26 04:55:55;;;;;;;16.23;11.73;;;;;;;15.12;75.61;94209.94;5108109;28;20032;-73
2021/05/26 04:58:21;;;;;;;12.80;10.95;;;;;;;15.07;75.89;94217.41;5110824;28;20363;-73
2021/05/26 05:00:46;;;;;;;15.70;11.32;;;;;;;15.14;76.07;94217.63;5111273;28;20020;-74
2021/05/26 05:03:11;;;;;;;17.58;12.18;;;;;;;14.99;76.00;94214.47;5110713;28;20080;-73
2021/05/26 05:05:37;;;;;;;14.73;11.25;;;;;;;14.88;75.83;94224.06;5110776;28;20023;-73
2021/05/26 05:08:05;;;;;;;13.18;10.90;;;;;;;14.85;76.20;94224.72;5103651;28;20122;-74
2021/05/26 05:10:31;;;;;;;18.17;11.90;;;;;;;14.83;76.25;94221.59;5091216;28;20031;-73
2021/05/26 05:12:57;;;;;;;18.45;12.10;;;;;;;14.82;75.73;94214.66;5100441;28;20028;-74
2021/05/26 05:15:23;;;;;;;17.98;11.88;;;;;;;14.81;75.90;94213.88;5091538;28;20042;-73
2021/05/26 05:17:50;;;;;;;15.65;11.18;;;;;;;14.80;75.62;94223.03;5090396;28;20031;-73
2021/05/26 05:20:19;;;;;;;18.05;11.45;;;;;;;14.79;75.94;94218.00;5094509;28;20184;-73
2021/05/26 05:22:45;;;;;;;16.42;10.30;;;;;;;14.85;75.34;94214.00;5098491;28;20115;-74
2021/05/26 05:25:11;;;;;;;17.23;11.38;;;;;;;14.91;75.23;94209.97;5107817;28;20118;-74
2021/05/26 05:27:37;;;;;;;16.73;12.77;;;;;;;14.97;75.27;94219.41;5096698;28;20107;-74
2021/05/26 05:30:04;;;;;;;18.38;12.88;;;;;;;14.95;75.63;94205.53;5091849;28;20108;-81
2021/05/26 05:32:30;;;;;;;15.15;10.95;;;;;;;15.01;75.15;94225.66;5109092;28;20057;-76
2021/05/26 05:34:55;;;;;;;18.90;10.32;;;;;;;14.99;74.04;94219.84;5111341;28;20059;-77
2021/05/26 05:37:20;;;;;;;14.20;10.85;;;;;;;14.88;74.63;94212.53;5109952;28;20034;-77
2021/05/26 05:39:46;;;;;;;19.95;11.13;;;;;;;14.93;74.48;94226.53;5109314;28;20436;-80
2021/05/26 05:42:11;;;;;;;16.77;10.27;;;;;;;14.97;73.83;94224.75;5100489;28;20024;-79
2021/05/26 05:44:36;;;;;;;15.48;10.30;;;;;;;15.05;73.95;94226.56;5096612;28;20027;-78
2021/05/26 05:47:02;;;;;;;15.35;10.00;;;;;;;15.05;72.67;94223.09;5094885;28;20053;-80
2021/05/26 05:49:27;;;;;;;14.85;9.45;;;;;;;15.00;72.48;94220.63;5105619;28;20138;-80
2021/05/26 05:51:53;;;;;;;18.08;10.13;;;;;;;14.90;72.71;94226.41;5096711;28;20031;-80
2021/05/26 05:54:18;;;;;;;16.25;9.43;;;;;;;14.82;72.51;94222.72;5094487;28;20061;-80
2021/05/26 05:56:43;;;;;;;14.27;9.75;;;;;;;14.79;72.57;94228.72;5102426;28;20020;-80
2021/05/26 05:59:09;;;;;;;22.83;10.30;;;;;;;14.75;73.11;94231.28;5095808;28;20022;-80
2021/05/26 06:01:34;;;;;;;12.52;8.98;;;;;;;14.81;73.12;94234.56;5102747;28;20118;-76
2021/05/26 06:04:00;;;;;;;12.85;8.43;;;;;;;14.81;72.47;94223.81;5088777;28;20107;-80
2021/05/26 06:06:25;;;;;;;11.32;8.23;;;;;;;14.75;72.17;94223.22;5098800;28;20528;-81
2021/05/26 06:08:51;;;;;;;13.45;7.75;;;;;;;14.82;71.68;94230.78;5100665;28;20036;-80
2021/05/26 06:11:16;;;;;;;10.38;7.53;;;;;;;14.73;71.85;94227.38;5104468;28;20491;-81
2021/05/26 06:13:46;;;;;;;11.38;7.25;;;;;;;14.71;71.64;94226.91;5104152;28;20418;-80
2021/05/26 06:16:11;;;;;;;19.58;8.80;;;;;;;14.67;71.94;94234.06;5091820;28;20410;-75
2021/05/26 06:18:36;;;;;;;16.95;8.38;;;;;;;14.67;72.39;94240.19;5094874;28;20031;-76
2021/05/26 06:21:03;;;;;;;11.95;8.20;;;;;;;14.70;71.73;94244.13;5090521;28;20028;-76
2021/05/26 06:23:28;;;;;;;17.20;7.72;;;;;;;14.73;71.76;94246.16;5087893;28;20406;-76
2021/05/26 06:25:54;;;;;;;24.75;8.50;;;;;;;14.69;71.93;94237.19;5085372;28;20243;-76
2021/05/26 06:28:19;;;;;;;16.58;7.80;;;;;;;14.62;71.67;94241.19;5093331;28;20192;-76
2021/05/26 06:30:44;;;;;;;11.27;8.07;;;;;;;14.56;72.11;94249.78;5108107;28;20035;-76
2021/05/26 06:33:10;;;;;;;11.27;8.23;;;;;;;14.52;71.95;94246.94;5108080;28;20114;-76
2021/05/26 06:35:35;;;;;;;16.60;7.70;;;;;;;14.51;72.48;94249.94;5108247;28;20395;-76
2021/05/26 06:38:01;;;;;;;15.00;7.40;;;;;;;14.49;72.08;94234.19;5109559;28;20031;-76
2021/05/26 06:40:26;;;;;;;11.50;7.25;;;;;;;14.54;72.23;94238.56;5109641;28;20394;-76
2021/05/26 06:42:51;;;;;;;18.83;8.65;;;;;;;14.52;72.54;94238.88;5110533;28;20027;-76
2021/05/26 06:45:17;;;;;;;14.32;7.00;;;;;;;14.67;71.96;94234.81;5102098;28;20030;-76
2021/05/26 06:47:42;;;;;;;13.90;7.43;;;;;;;14.79;71.97;94226.03;5109087;28;20509;-76
2021/05/26 06:50:09;;;;;;;10.68;6.45;;;;;;;14.82;70.88;94233.44;5110206;28;20043;-76
2021/05/26 06:52:35;;;;;;;12.77;7.47;;;;;;;14.96;70.31;94228.56;5110420;28;20023;-76
2021/05/26 06:55:00;;;;;;;13.90;7.25;;;;;;;15.07;69.82;94225.47;5126191;27;20032;-76
2021/05/26 06:57:26;;;;;;;18.45;7.22;;;;;;;15.18;69.79;94231.97;5110682;28;20398;-76
2021/05/26 06:59:51;;;;;;;11.40;7.03;;;;;;;15.22;69.90;94222.94;5091640;28;20022;-76
2021/05/26 07:02:17;;;;;;;17.73;7.13;;;;;;;15.37;69.17;94220.72;5090217;28;20050;-76
2021/05/26 07:04:42;;;;;;;17.10;6.30;;;;;;;15.56;68.68;94217.47;5089007;28;20396;-76
2021/05/26 07:07:08;;;;;;;11.98;6.28;;;;;;;15.67;68.02;94218.59;5090205;28;20024;-76
2021/05/26 07:09:33;;;;;;;10.18;6.43;;;;;;;15.63;67.66;94215.00;5096402;28;20402;-76
2021/05/26 07:11:58;;;;;;;11.38;7.47;;;;;;;15.59;67.70;94219.47;5109283;28;20474;-76
2021/05/26 07:14:24;;;;;;;17.85;7.38;;;;;;;15.63;67.57;94220.38;5108911;28;20066;-76
2021/05/26 07:16:49;;;;;;;13.00;6.93;;;;;;;15.59;68.15;94224.84;5109089;28;20542;-76
2021/05/26 07:19:15;;;;;;;16.33;6.60;;;;;;;15.51;67.41;94223.06;5108907;28;20395;-76
2021/05/26 07:21:41;;;;;;;13.40;7.10;;;;;;;15.42;67.58;94221.25;5096767;28;20475;-76
2021/05/26 07:24:07;;;;;;;16.02;6.95;;;;;;;15.26;68.13;94217.66;5088603;28;20028;-76
2021/05/26 07:26:32;;;;;;;10.90;7.10;;;;;;;15.24;68.30;94226.06;5092595;28;20031;-76
2021/05/26 07:28:57;;;;;;;13.35;7.13;;;;;;;15.18;68.59;94216.66;5092779;28;20085;-76
2021/05/26 07:31:23;;;;;;;21.27;7.80;;;;;;;15.20;69.13;94219.00;5092540;28;20064;-76
2021/05/26 07:33:48;;;;;;;14.73;6.85;;;;;;;15.24;68.97;94219.91;5093972;28;20059;-76
2021/05/26 07:36:14;;;;;;;18.65;6.70;;;;;;;15.27;69.42;94219.25;5092737;28;20106;-76
2021/05/26 07:38:40;;;;;;;10.57;7.00;;;;;;;15.22;69.25;94222.13;5093838;28;20016;-76
2021/05/26 07:41:06;;;;;;;13.10;7.45;;;;;;;15.20;69.26;94219.00;5092492;28;20099;-76
2021/05/26 07:43:33;;;;;;;19.27;7.03;;;;;;;15.27;69.28;94221.16;5092477;28;20043;-76
2021/05/26 07:45:59;;;;;;;19.70;6.50;;;;;;;15.30;69.15;94218.56;5093908;28;20064;-76
2021/05/26 07:48:25;;;;;;;18.17;6.72;;;;;;;15.37;68.84;94224.19;5092001;28;20074;-76
2021/05/26 07:50:50;;;;;;;8.93;6.88;;;;;;;15.45;68.28;94225.19;5092388;28;20089;-76
2021/05/26 07:53:15;;;;;;;9.65;5.20;;;;;;;15.53;67.39;94220.81;5093500;28;20036;-76
2021/05/26 07:55:41;;;;;;;14.95;5.60;;;;;;;15.57;66.53;94208.28;5093646;28;20081;-76
2021/05/26 07:58:06;;;;;;;8.23;4.72;;;;;;;15.59;65.94;94214.09;5092109;28;20031;-76
2021/05/26 08:00:32;;;;;;;7.03;4.70;;;;;;;15.69;66.84;94208.28;5091931;28;20059;-76
2021/05/26 08:02:57;;;;;;;9.20;5.07;;;;;;;15.79;66.37;94210.56;5092433;28;20028;-76
2021/05/26 08:05:24;;;;;;;13.95;5.22;;;;;;;15.91;65.78;94208.97;5090626;28;20443;-76
2021/05/26 08:07:50;;;;;;;8.18;4.93;;;;;;;16.07;64.96;94212.53;5096466;28;20024;-76
2021/05/26 08:10:16;;;;;;;8.65;4.50;;;;;;;16.17;64.72;94205.91;5113047;28;20155;-76
2021/05/26 08:12:41;;;;;;;10.68;5.05;;;;;;;16.32;65.08;94205.19;5112132;28;20424;-76
2021/05/26 08:15:09;;;;;;;7.00;5.03;;;;;;;16.42;63.88;94198.56;5112971;28;20030;-76
2021/05/26 08:17:35;;;;;;;13.60;4.45;;;;;;;16.49;62.89;94198.78;5111661;28;20028;-76
2021/05/26 08:20:01;;;;;;;5.57;4.22;;;;;;;16.60;63.43;94196.38;5112257;28;20626;-76
2021/05/26 08:22:28;;;;;;;8.38;5.60;;;;;;;16.73;63.13;94197.91;5113315;28;20077;-76
2021/05/26 08:24:53;;;;;;;18.25;4.55;;;;;;;16.80;62.03;94195.38;5112177;28;20031;-76
2021/05/26 08:27:18;;;;;;;10.90;4.82;;;;;;;16.75;63.02;94198.34;5112191;28;20019;-76
2021/05/26 08:29:44;;;;;;;8.43;4.22;;;;;;;16.92;63.00;94191.88;5113090;28;20483;-76
2021/05/26 08:32:09;;;;;;;8.13;4.10;;;;;;;17.03;61.93;94192.94;5111879;28;20138;-76
2021/05/26 08:34:34;;;;;;;10.57;4.10;;;;;;;17.11;61.31;94193.13;5113115;28;20030;-76
2021/05/26 08:37:00;;;;;;;10.43;4.85;;;;;;;17.26;61.65;94200.44;5098009;28;20032;-76
2021/05/26 08:39:25;;;;;;;5.70;4.38;;;;;;;17.32;61.37;94193.66;5091196;28;20433;-76
2021/05/26 08:41:52;;;;;;;11.15;4.72;;;;;;;17.42;61.59;94198.53;5092748;28;20024;-76
2021/05/26 08:44:18;;;;;;;9.60;5.88;;;;;;;17.56;61.17;94198.06;5092737;28;20024;-76
2021/05/26 08:46:44;;;;;;;6.10;4.05;;;;;;;17.56;60.88;94195.38;5092376;28;20028;-76
2021/05/26 08:49:10;;;;;;;7.45;4.10;;;;;;;17.55;59.85;94199.22;5091074;28;20129;-74
2021/05/26 08:51:36;;;;;;;7.63;4.68;;;;;;;17.60;60.11;94198.16;5091234;28;20111;-76
2021/05/26 08:54:02;;;;;;;7.93;4.95;;;;;;;17.59;60.51;94193.94;5091242;28;20020;-76
2021/05/26 08:56:28;;;;;;;13.25;4.97;;;;;;;17.69;60.58;94200.69;5091163;28;20511;-76
2021/05/26 08:58:53;;;;;;;10.60;4.53;;;;;;;17.83;60.24;94196.44;5102740;28;20028;-74
2021/05/26 09:01:22;;;;;;;6.13;4.55;;;;;;;17.90;60.08;94190.44;5111148;28;20033;-76
2021/05/26 09:03:52;;;;;;;12.25;5.60;;;;;;;18.00;59.88;94189.88;5111160;28;20057;-76
2021/05/26 09:06:18;;;;;;;13.63;6.60;;;;;;;18.16;59.57;94186.38;5128486;27;20041;-76
2021/05/26 09:08:51;;;;;;;7.20;4.43;;;;;;;18.33;59.78;94195.97;5112122;28;20102;-76
2021/05/26 09:11:29;;;;;;;6.90;4.68;;;;;;;18.35;59.30;94188.31;5111036;28;20062;-76
2021/05/26 09:13:54;;;;;;;8.00;5.40;;;;;;;18.48;59.63;94178.94;5110655;28;20023;-76
2021/05/26 09:16:23;;;;;;;7.35;4.93;;;;;;;18.70;60.13;94184.75;5111090;28;20498;-76
2021/05/26 09:18:59;;;;;;;8.80;5.45;;;;;;;18.85;58.83;94181.22;5112218;28;20018;-75
2021/05/26 09:21:50;;;;;;;15.23;6.70;;;;;;;18.98;58.87;94181.84;5111077;28;20183;-74
2021/05/26 09:24:18;;;;;;;10.40;5.80;;;;;;;19.17;59.07;94172.91;5092344;28;20030;-74
2021/05/26 09:26:48;;;;;;;10.25;5.88;;;;;;;19.21;58.57;94171.03;5090156;28;20085;-75
2021/05/26 09:29:13;;;;;;;10.18;5.97;;;;;;;19.23;57.35;94168.75;5090221;28;20461;-75
2021/05/26 09:31:38;;;;;;;8.73;6.32;;;;;;;19.32;57.98;94166.59;5090099;28;20111;-75
2021/05/26 09:34:04;;;;;;;10.00;6.78;;;;;;;19.54;57.90;94164.22;5090207;28;20020;-75
2021/05/26 09:36:29;;;;;;;12.02;7.15;;;;;;;19.76;57.65;94160.78;5090185;28;20403;-75
2021/05/26 09:38:57;;;;;;;15.52;7.45;;;;;;;19.90;56.78;94160.19;5089958;28;20081;-75
2021/05/26 09:41:28;;;;;;;11.55;7.10;;;;;;;19.90;56.79;94143.19;5089902;28;20119;-75
2021/05/26 09:44:00;;;;;;;18.52;6.88;;;;;;;20.11;55.92;94148.09;5089735;28;20024;-75
2021/05/26 09:46:27;;;;;;;13.00;6.68;;;;;;;20.10;55.20;94141.91;5089808;28;20024;-75
2021/05/26 09:49:07;;;;;;;13.18;6.68;;;;;;;20.38;55.86;94146.13;5089989;28;20040;-75
2021/05/26 09:51:38;;;;;;;9.30;6.32;;;;;;;20.58;54.41;94142.16;5102562;28;20023;-75
2021/05/26 09:54:08;;;;;;;11.60;6.28;;;;;;;20.77;54.29;94135.75;5111474;28;20039;-75
2021/05/26 09:56:33;;;;;;;8.57;6.00;;;;;;;20.96;53.80;94140.19;5110085;28;20079;-75
2021/05/26 09:59:01;;;;;;;15.07;7.38;;;;;;;21.07;53.83;94136.84;5110200;28;20016;-74
2021/05/26 10:01:27;;;;;;;8.50;5.80;;;;;;;21.28;52.94;94142.44;5111145;28;20485;-75
2021/05/26 10:03:52;;;;;;;12.25;6.43;;;;;;;21.24;52.24;94130.78;5105853;28;20479;-74
2021/05/26 10:06:18;;;;;;;11.80;6.03;;;;;;;21.42;52.02;94134.47;5109053;28;20029;-74
2021/05/26 10:08:45;;;;;;;15.27;7.15;;;;;;;21.40;52.40;94127.84;5110975;28;20036;-75
2021/05/26 10:11:11;;;;;;;10.30;6.85;;;;;;;21.36;53.18;94121.59;5098015;28;20023;-74
2021/05/26 10:13:37;;;;;;;17.05;6.85;;;;;;;21.36;52.81;94121.59;5089488;28;20130;-75
2021/05/26 10:16:03;;;;;;;15.18;6.97;;;;;;;21.37;52.55;94120.44;5089363;28;20067;-75
2021/05/26 10:18:31;;;;;;;12.60;7.00;;;;;;;21.50;52.19;94105.47;5089211;28;20019;-74
2021/05/26 10:20:57;;;;;;;9.73;6.43;;;;;;;21.69;52.29;94109.84;5089331;28;20031;-74
2021/05/26 10:23:23;;;;;;;13.55;8.27;;;;;;;21.95;52.08;94091.81;5090642;28;20024;-74
2021/05/26 10:25:53;;;;;;;11.32;7.22;;;;;;;22.20;51.74;94103.53;5090368;28;20028;-74
2021/05/26 10:28:32;;;;;;;15.88;6.75;;;;;;;22.32;51.02;94098.97;5089289;28;20075;-75
2021/05/26 10:30:59;;;;;;;11.95;6.90;;;;;;;22.08;50.81;94100.38;5092369;28;20448;-74
2021/05/26 10:33:39;;;;;;;14.10;7.35;;;;;;;22.00;51.01;94096.84;5110827;28;20027;-74
2021/05/26 10:36:08;;;;;;;19.52;7.20;;;;;;;21.82;51.65;94086.69;5109297;28;20055;-74
2021/05/26 10:39:00;;;;;;;29.20;8.23;;;;;;;21.97;51.98;94081.34;5109424;28;20059;-74
2021/05/26 10:41:45;;;;;;;;;;;;;;;21.80;52.49;94080.88;5109651;28;20034;-74
2021/05/26 10:44:11;;;;;;;15.82;8.57;;;;;;;21.67;52.70;94076.91;5110386;28;19915;-74
2021/05/26 10:46:37;;;;;;;15.80;7.97;;;;;;;21.49;53.18;94076.00;5103769;28;20566;-75
2021/05/26 10:49:10;;;;;;;21.33;7.95;;;;;;;21.48;52.77;94074.47;5090645;28;20491;-74
2021/05/26 10:51:53;;;;;;;14.32;8.32;;;;;;;21.64;53.63;94062.16;5103854;28;20399;-74
2021/05/26 10:54:41;;;;;;;21.98;8.57;;;;;;;21.71;52.02;94053.28;5090211;28;20032;-74
2021/05/26 10:57:08;;;;;;;17.67;8.02;;;;;;;21.73;52.00;94048.25;5088933;28;20054;-75
2021/05/26 10:59:34;;;;;;;16.17;7.80;;;;;;;21.87;52.12;94050.28;5097707;28;20029;-75
2021/05/26 11:02:03;;;;;;;20.40;8.00;;;;;;;21.81;51.59;94043.66;5108668;28;20474;-75
2021/05/26 11:04:29;;;;;;;18.70;7.88;;;;;;;21.97;51.88;94041.41;5108805;28;20100;-75
2021/05/26 11:07:21;;;;;;;12.35;6.97;;;;;;;22.17;52.28;94033.75;5108961;28;20023;-75
2021/05/26 11:09:53;;;;;;;21.05;7.15;;;;;;;22.47;51.90;94032.69;5108959;28;20024;-75
2021/05/26 11:12:19;;;;;;;24.30;7.63;;;;;;;22.62;50.36;94026.13;5108951;28;20031;-75
2021/05/26 11:14:44;;;;;;;16.00;7.45;;;;;;;22.68;50.10;94031.97;5110051;28;20039;-75
2021/05/26 11:17:12;;;;;;;13.10;7.82;;;;;;;22.74;50.64;94026.94;5087030;28;20034;-75
2021/05/26 11:19:38;;;;;;;22.85;7.80;;;;;;;22.76;49.75;94013.72;5089992;28;20028;-75